createdAt,value
2017-08-21T00:07:45.222Z,7.2
2017-08-21T00:18:00.310Z,6.2
2017-08-21T00:28:14.675Z,5.6
2017-08-21T00:38:29.262Z,4.6
2017-08-21T00:48:44.580Z,4
2017-08-21T00:58:58.986Z,3.7
2017-08-21T01:09:14.380Z,4.2
2017-08-21T01:19:29.758Z,4.3
2017-08-21T01:29:45.113Z,4.7
2017-08-21T01:39:59.320Z,4.8
2017-08-21T01:50:13.768Z,5.1
2017-08-21T02:00:28.130Z,5.2
2017-08-21T02:10:42.653Z,5
2017-08-21T02:20:58.284Z,5
2017-08-21T02:31:12.103Z,4.9
2017-08-21T02:41:26.303Z,4.8
2017-08-21T02:51:41.418Z,5
2017-08-21T03:01:56.136Z,4.8
2017-08-21T03:12:10.687Z,4.9
2017-08-21T03:22:25.076Z,4.8
2017-08-21T03:32:39.238Z,5
2017-08-21T03:42:53.834Z,5.1
2017-08-21T03:53:09.001Z,5.1
2017-08-21T04:03:24.478Z,4.9
2017-08-21T04:13:38.435Z,5.2
2017-08-21T04:23:53.827Z,5.2
2017-08-21T04:34:09.443Z,5.1
2017-08-21T04:44:24.307Z,5.6
2017-08-21T04:54:38.434Z,5.7
2017-08-21T05:04:53.981Z,5.5
2017-08-21T05:15:09.257Z,5.5
2017-08-21T05:25:23.021Z,5.5
2017-08-21T05:35:38.436Z,5.7
2017-08-21T05:45:52.221Z,5.6
2017-08-21T05:56:07.336Z,5.2
2017-08-21T06:06:22.494Z,5.6
2017-08-21T06:16:36.592Z,5.2
2017-08-21T06:26:51.762Z,5.2
2017-08-21T06:37:06.663Z,5.5
2017-08-21T06:47:22.066Z,6.6
2017-08-21T06:57:36.587Z,9.6
2017-08-21T07:07:50.680Z,16.5
2017-08-21T07:18:05.245Z,32.5
2017-08-21T07:28:19.729Z,42
2017-08-21T07:38:33.659Z,61
2017-08-21T07:48:47.839Z,76.8
2017-08-21T07:59:02.709Z,82.5
2017-08-21T08:09:16.635Z,86.4
2017-08-21T08:19:32.175Z,87.2
2017-08-21T08:29:46.159Z,87.8
2017-08-21T08:40:01.243Z,87
2017-08-21T08:50:16.217Z,87.2
2017-08-21T09:00:31.486Z,87.1
2017-08-21T09:10:45.799Z,88.2
2017-08-21T09:21:01.205Z,88
2017-08-21T09:31:16.678Z,85.3
2017-08-21T09:41:32.033Z,85.3
2017-08-21T09:51:47.803Z,84.7
2017-08-21T10:02:03.052Z,85.5
2017-08-21T10:12:17.971Z,86
2017-08-21T10:22:33.315Z,86.5
2017-08-21T10:32:47.419Z,85.7
2017-08-21T10:43:02.356Z,87.3
2017-08-21T10:53:17.221Z,87
2017-08-21T11:03:32.780Z,85.3
2017-08-21T11:13:47.735Z,86.2
2017-08-21T11:24:02.536Z,83.7
2017-08-21T11:34:16.876Z,82.6
2017-08-21T11:44:31.529Z,82.9
2017-08-21T11:54:45.978Z,80.7
2017-08-21T12:05:01.108Z,81.6
2017-08-21T12:15:16.510Z,81.3
2017-08-21T12:25:30.542Z,81.2
2017-08-21T12:35:45.861Z,80.8
2017-08-21T12:46:01.663Z,82.6
2017-08-21T12:56:16.092Z,82.9
2017-08-21T13:06:30.972Z,81.5
2017-08-21T13:16:45.875Z,78.4
2017-08-21T13:27:01.331Z,79.3
2017-08-21T13:37:16.337Z,81.2
2017-08-21T13:47:30.408Z,81.7
2017-08-21T13:57:44.410Z,78.4
2017-08-21T14:07:59.345Z,78.4
2017-08-21T14:18:14.351Z,80.9
2017-08-21T14:28:28.428Z,80.7
2017-08-21T14:38:43.348Z,80.5
2017-08-21T14:48:57.995Z,81.8
2017-08-21T14:59:13.371Z,79.6
2017-08-21T15:09:27.513Z,80.7
2017-08-21T15:19:42.404Z,80.5
2017-08-21T15:29:56.861Z,81.3
2017-08-21T15:40:12.482Z,83.2
2017-08-21T15:50:26.871Z,83.1
2017-08-21T16:00:41.776Z,80.9
2017-08-21T16:10:56.782Z,83.2
2017-08-21T16:21:11.025Z,84.7
2017-08-21T16:31:26.461Z,83.4
2017-08-21T16:41:40.354Z,83.8
2017-08-21T16:51:54.917Z,82.9
2017-08-21T17:02:10.598Z,86.5
2017-08-21T17:12:25.563Z,88.1
2017-08-21T17:22:40.966Z,89.7
2017-08-21T17:32:56.557Z,89.8
2017-08-21T17:43:11.395Z,89.9
2017-08-21T17:53:25.544Z,87
2017-08-21T18:03:40.101Z,77.2
2017-08-21T18:13:55.026Z,79.1
2017-08-21T18:24:09.107Z,83.8
2017-08-21T18:34:23.885Z,76.9
2017-08-21T18:44:38.814Z,60.7
2017-08-21T18:54:53.799Z,58.2
2017-08-21T19:05:08.853Z,43.2
2017-08-21T19:15:22.916Z,49.9
2017-08-21T19:25:37.110Z,49
2017-08-21T19:35:52.481Z,41.3
2017-08-21T19:46:07.914Z,34.1
2017-08-21T19:56:22.602Z,25.5
2017-08-21T20:06:38.294Z,19.2
2017-08-21T20:16:52.327Z,14.7
2017-08-21T20:27:06.474Z,14.4
2017-08-21T20:37:22.145Z,12
2017-08-21T20:47:37.801Z,10.9
2017-08-21T20:57:53.517Z,10.2
2017-08-21T21:08:08.160Z,9
2017-08-21T21:18:22.081Z,8.3
2017-08-21T21:28:37.477Z,7.8
2017-08-21T21:38:52.013Z,7.8
2017-08-21T21:49:05.922Z,7.5
2017-08-21T21:59:20.359Z,7
2017-08-21T22:09:35.771Z,7.1
2017-08-21T22:19:50.591Z,6.9
2017-08-21T22:30:04.684Z,7
2017-08-21T22:40:19.636Z,7
2017-08-21T22:50:35.093Z,6.9
2017-08-21T23:00:48.940Z,6.8
2017-08-21T23:11:03.259Z,6.6
2017-08-21T23:21:18.851Z,6.7
2017-08-21T23:31:33.574Z,6.4
2017-08-21T23:41:47.801Z,6.5
2017-08-21T23:52:01.545Z,6.5
